Meteo Giornale » Osservazioni meteo Svizzera » Saint Gallen-Altenrhein

ore: 21:50 - Osservazioni Meteo Saint Gallen-Altenrhein
Lat. 47° 29' N Lon. 9° 33' E Alt. 398 metri s.l.m.

sereno

20 °C

Sereno

Temp. 24 Ore

13 °C

24 °C

Sud/Sud-Ovest

9.3 Km/h

Dew point 11 °C

Umidità 56 %

Visibilità  10 Km

Il sole sorge alle ore 06:40

Il sole tramonta alle ore 20:03

Data e Ora Cielo e Fenomeni T °C DP °C Um. % Pres. hPa Vis. km Vento km/h
Oggi h: 21:50 sereno Sereno 20 11 56 1022 10 S/SO 9.3
Oggi h: 21:20 sereno Sereno 20 11 56 1022 10 N 5.5
Oggi h: 20:50 sereno Sereno 20 11 56 1021 10 N 5.5
Oggi h: 20:20 sereno Sereno 20 12 59 1021 10 N 5.5
Oggi h: 19:50 sereno Sereno 21 13 60 1021 10 N 1.8
Oggi h: 19:20 sereno Sereno 23 14 56 1021 10 N 1.8
Oggi h: 18:50 molto_nuvoloso Molto Nuvoloso 24 10 41 1021 10 N 1.8
Oggi h: 18:20 nuvoloso Nuvoloso 24 12 47 1021 10 N 1.8
Oggi h: 17:50 poco_nuvoloso Poco Nuvoloso 24 12 47 1021 10 N 3.7
Oggi h: 17:20 poco_nuvoloso Poco Nuvoloso 24 11 43 1021 10 N 5.5
Oggi h: 16:50 poco_nuvoloso Poco Nuvoloso 23 11 46 1021 10 N/NE 7.4
Oggi h: 16:20 poco_nuvoloso Poco Nuvoloso 24 13 50 1021 10 N 5.5
Oggi h: 15:50 poco_nuvoloso Poco Nuvoloso 24 13 50 1022 10 N/NE 7.4
Oggi h: 15:20 poco_nuvoloso Poco Nuvoloso 23 12 49 1022 10 N 5.5
Oggi h: 14:50 poco_nuvoloso Poco Nuvoloso 23 14 56 1022 10 N/NE 7.4
Oggi h: 14:20 poco_nuvoloso Poco Nuvoloso 23 12 49 1022 10 N 5.5
Oggi h: 13:50 sereno Sereno 22 13 56 1022 10 N/NE 7.4
Oggi h: 13:20 poco_nuvoloso Poco Nuvoloso 22 13 56 1022 10 N/NE 11.1
Oggi h: 12:50 poco_nuvoloso Poco Nuvoloso 21 12 56 1023 10 N 9.3
Oggi h: 12:20 poco_nuvoloso Poco Nuvoloso 21 13 60 1023 10 NO 7.4
Oggi h: 11:50 poco_nuvoloso Poco Nuvoloso 21 13 60 1023 10 N/NO 9.3
Oggi h: 11:20 poco_nuvoloso Poco Nuvoloso 21 13 60 1023 10 N 7.4
Oggi h: 10:50 poco_nuvoloso Poco Nuvoloso 20 14 68 1023 10 N 9.3
Oggi h: 10:20 poco_nuvoloso Poco Nuvoloso 20 13 64 1023 10 N 5.5
Oggi h: 09:50 sereno Sereno 20 14 68 1023 10 N 3.7
Oggi h: 09:20 sereno Sereno 19 14 72 1023 10 N 1.8
Oggi h: 08:50 sereno Sereno 18 14 77 1022 10 N 3.7
Oggi h: 08:20 sereno Sereno 17 14 82 1023 10 N 3.7
Oggi h: 07:50 sereno Sereno 15 13 87 1022 10 N 5.5
Oggi h: 07:20 sereno Sereno 14 12 87 1022 10 N 3.7
Oggi h: 06:50 sereno Sereno 13 11 87 1022 10 N 3.7
Oggi h: 06:20 sereno Sereno 14 11 82 1022 10 N 0
Oggi h: 05:50 sereno Sereno 15 11 76 1022 10 N 3.7
Oggi h: 05:20 sereno Sereno 14 11 82 1022 10 N 1.8
Oggi h: 04:50 sereno Sereno 15 11 76 1022 10 N 3.7
Oggi h: 04:20 sereno Sereno 14 11 82 1022 10 N 5.5
Oggi h: 03:50 poco_nuvoloso Poco Nuvoloso 13 11 87 1022 10 N 5.5
Oggi h: 03:20 sereno Sereno 15 12 82 1022 10 N 5.5
Oggi h: 02:50 sereno Sereno 15 11 76 1022 10 N 1.8
Oggi h: 02:20 poco_nuvoloso Poco Nuvoloso 15 12 82 1022 10 N 3.7
Oggi h: 01:50 molto_nuvoloso Molto Nuvoloso 16 11 72 1022 10 N 3.7
Oggi h: 01:20 molto_nuvoloso Molto Nuvoloso 20 10 52 1022 10 N 5.5
Oggi h: 00:50 molto_nuvoloso Molto Nuvoloso 20 10 52 1022 10 O/SO 7.4
Oggi h: 00:20 nuvoloso Nuvoloso 20 10 52 1022 10 SO 7.4
Ieri h: 23:50 poco_nuvoloso Poco Nuvoloso 19 10 55 1022 10 N 5.5
Ieri h: 23:20 nuvoloso Nuvoloso 18 12 67 1022 10 N 1.8
Ieri h: 22:50 molto_nuvoloso Molto Nuvoloso 20 10 52 1022 10 N 3.7